Lundu, Malaysia
Current Conditions -  °F | °C
As of 4:30 PM on Saturday 20 Dec 2014 (Local Time) from WBGG Reporting Station
Broken Clouds Broken Clouds  
Wind Chill: 91°   Ceiling: 30000
Heat Index: 100°   Visibility: 6mi
Dew Point: 73°   Wind: 6mph
Humidity: 55%   Direction: 290°WNW
Pressure: 29.71"   Gusts: NA
Location:  1.68°N, 109.85°E
Report Text: WBGG 200830Z 29005KT 230V330 9999 SCT020 BKN300 33/23 Q1006 NOSIG
Loading
Personal Weather Stations






























Interactive Weather Map New forecast layout! Learn more

10-Day Weather Forecast

Advertisements
Track Severe Weather on mobile